createdAt,value
2017-09-17T00:00:38.949Z,86.76
2017-09-17T00:03:07.255Z,86.82
2017-09-17T00:05:35.585Z,87.48
2017-09-17T00:08:03.881Z,87.82
2017-09-17T00:10:32.173Z,87.61
2017-09-17T00:13:00.485Z,87.60
2017-09-17T00:15:29.562Z,87.91
2017-09-17T00:17:57.878Z,88.09
2017-09-17T00:20:26.178Z,88.62
2017-09-17T00:22:54.485Z,88.72
2017-09-17T00:25:22.787Z,88.51
2017-09-17T00:27:51.862Z,88.36
2017-09-17T00:30:20.169Z,88.42
2017-09-17T00:32:49.250Z,88.11
2017-09-17T00:35:17.558Z,88.38
2017-09-17T00:37:45.894Z,88.29
2017-09-17T00:40:14.214Z,88.74
2017-09-17T00:42:42.510Z,88.90
2017-09-17T00:45:10.868Z,88.12
2017-09-17T00:47:39.178Z,89.35
2017-09-17T00:50:07.540Z,88.38
2017-09-17T00:52:35.829Z,88.66
2017-09-17T00:55:04.141Z,88.91
2017-09-17T00:57:32.434Z,89.41
2017-09-17T01:00:01.518Z,89.58
2017-09-17T01:02:29.826Z,89.71
2017-09-17T01:04:58.137Z,89.57
2017-09-17T01:07:26.442Z,89.51
2017-09-17T01:09:54.790Z,89.92
2017-09-17T01:12:23.092Z,90.32
2017-09-17T01:14:51.406Z,90.20
2017-09-17T01:17:19.714Z,90.06
2017-09-17T01:19:48.020Z,89.52
2017-09-17T01:22:16.329Z,90.07
2017-09-17T01:24:45.456Z,89.93
2017-09-17T01:27:13.772Z,89.62
2017-09-17T01:29:42.098Z,89.09
2017-09-17T01:32:10.414Z,88.73
2017-09-17T01:34:39.490Z,88.21
2017-09-17T01:37:07.818Z,88.56
2017-09-17T01:39:36.163Z,88.93
2017-09-17T01:42:04.474Z,89.05
2017-09-17T01:44:33.554Z,89.25
2017-09-17T01:47:01.866Z,89.30
2017-09-17T01:49:30.186Z,89.07
2017-09-17T01:51:58.486Z,88.70
2017-09-17T01:54:26.810Z,88.40
2017-09-17T01:56:55.107Z,87.99
2017-09-17T01:59:23.414Z,88.11
2017-09-17T02:01:51.723Z,87.99
2017-09-17T02:04:20.042Z,88.53
2017-09-17T02:06:48.349Z,88.75
2017-09-17T02:09:16.661Z,89.04
2017-09-17T02:11:44.973Z,88.80
2017-09-17T02:14:13.305Z,88.44
2017-09-17T02:16:42.369Z,88.64
2017-09-17T02:19:10.686Z,88.64
2017-09-17T02:21:39.757Z,88.69
2017-09-17T02:24:08.050Z,88.56
2017-09-17T02:26:37.120Z,88.31
2017-09-17T02:29:05.445Z,88.47
2017-09-17T02:31:33.782Z,88.92
2017-09-17T02:34:02.087Z,89.02
2017-09-17T02:36:30.392Z,88.64
2017-09-17T02:38:58.680Z,88.17
2017-09-17T02:41:26.986Z,87.96
2017-09-17T02:43:55.292Z,87.85
2017-09-17T02:46:23.593Z,87.80
2017-09-17T02:48:51.885Z,87.89
2017-09-17T02:51:20.190Z,88.03
2017-09-17T02:53:48.489Z,88.02
2017-09-17T02:56:17.597Z,88.15
2017-09-17T02:58:46.668Z,88.25
2017-09-17T03:01:14.965Z,88.63
2017-09-17T03:03:44.036Z,88.50
2017-09-17T03:06:12.328Z,88.81
2017-09-17T03:08:41.401Z,89.04
2017-09-17T03:11:09.712Z,89.21
2017-09-17T03:13:38.024Z,89.59
2017-09-17T03:16:06.332Z,90.47
2017-09-17T03:18:34.649Z,90.32
2017-09-17T03:21:02.964Z,89.91
2017-09-17T03:23:31.278Z,90.10
2017-09-17T03:25:59.570Z,89.97
2017-09-17T03:28:28.668Z,89.52
2017-09-17T03:30:56.966Z,90.27
2017-09-17T03:33:25.268Z,90.04
2017-09-17T03:35:53.577Z,89.58
2017-09-17T03:38:22.654Z,89.16
2017-09-17T03:40:50.969Z,89.37
2017-09-17T03:43:20.047Z,89.30
2017-09-17T03:45:48.353Z,89.44
2017-09-17T03:48:16.649Z,88.91
2017-09-17T03:50:45.228Z,88.71
2017-09-17T03:53:13.521Z,88.80
2017-09-17T03:55:41.844Z,88.62
2017-09-17T03:58:10.917Z,88.74
2017-09-17T04:00:39.240Z,88.88
2017-09-17T04:03:07.534Z,88.65
2017-09-17T04:05:35.829Z,88.26
2017-09-17T04:08:04.146Z,88.33
2017-09-17T04:10:33.212Z,88.74
2017-09-17T04:13:01.520Z,88.82
2017-09-17T04:15:30.602Z,88.61
2017-09-17T04:17:58.916Z,88.41
2017-09-17T04:20:27.209Z,88.84
2017-09-17T04:22:55.517Z,88.75
2017-09-17T04:25:23.812Z,89.25
2017-09-17T04:27:52.148Z,89.18
2017-09-17T04:30:20.442Z,89.33
2017-09-17T04:32:48.750Z,88.95
2017-09-17T04:35:17.834Z,89.39
2017-09-17T04:37:46.138Z,89.69
2017-09-17T04:40:15.208Z,89.95
2017-09-17T04:42:43.517Z,90.05
2017-09-17T04:45:11.821Z,90.28
2017-09-17T04:47:40.113Z,90.51
2017-09-17T04:50:08.431Z,90.19
2017-09-17T04:52:37.498Z,88.74
2017-09-17T04:55:05.839Z,88.80
2017-09-17T04:57:34.140Z,89.32
2017-09-17T05:00:02.441Z,89.72
2017-09-17T05:02:30.758Z,90.00
2017-09-17T05:04:59.053Z,89.74
2017-09-17T05:07:27.365Z,89.42
2017-09-17T05:09:55.670Z,89.15
2017-09-17T05:12:24.743Z,89.75
2017-09-17T05:14:53.041Z,89.87
2017-09-17T05:17:22.133Z,89.67
2017-09-17T05:19:51.212Z,88.81
2017-09-17T05:22:19.517Z,88.30
2017-09-17T05:24:48.589Z,88.41
2017-09-17T05:27:16.916Z,88.50
2017-09-17T05:29:45.221Z,88.33
2017-09-17T05:32:13.521Z,88.11
2017-09-17T05:34:41.816Z,87.95
2017-09-17T05:37:10.132Z,87.39
2017-09-17T05:39:38.461Z,86.89
2017-09-17T05:42:07.514Z,86.09
2017-09-17T05:44:35.812Z,86.35
2017-09-17T05:47:04.132Z,86.17
2017-09-17T05:49:32.428Z,85.98
2017-09-17T05:52:00.728Z,85.45
2017-09-17T05:54:29.028Z,84.81
2017-09-17T05:56:57.412Z,84.15
2017-09-17T05:59:25.717Z,83.55
2017-09-17T06:01:54.055Z,82.87
2017-09-17T06:04:22.358Z,82.25
2017-09-17T06:06:51.426Z,81.76
2017-09-17T06:09:19.743Z,81.35
2017-09-17T06:11:48.041Z,81.70
2017-09-17T06:14:16.356Z,80.15
2017-09-17T06:16:44.654Z,78.39
2017-09-17T06:19:12.958Z,78.77
2017-09-17T06:21:41.261Z,79.12
2017-09-17T06:24:09.576Z,82.24
2017-09-17T06:26:37.869Z,80.88
2017-09-17T06:29:06.945Z,78.92
2017-09-17T06:31:35.260Z,78.34
2017-09-17T06:34:03.577Z,78.35
2017-09-17T06:36:31.876Z,78.76
2017-09-17T06:39:00.173Z,80.39
2017-09-17T06:41:29.256Z,79.90
2017-09-17T06:43:57.576Z,79.62
2017-09-17T06:46:25.920Z,78.24
2017-09-17T06:48:54.992Z,77.22
2017-09-17T06:51:23.289Z,76.57
2017-09-17T06:53:52.387Z,75.79
2017-09-17T06:56:21.459Z,75.25
2017-09-17T06:58:49.773Z,74.16
2017-09-17T07:01:18.859Z,75.03
2017-09-17T07:03:47.954Z,74.22
2017-09-17T07:06:17.016Z,74.20
2017-09-17T07:08:45.353Z,73.47
2017-09-17T07:11:13.657Z,72.71
2017-09-17T07:13:41.956Z,72.58
2017-09-17T07:16:10.282Z,71.35
2017-09-17T07:18:38.586Z,69.69
2017-09-17T07:21:06.884Z,67.90
2017-09-17T07:23:35.176Z,67.65
2017-09-17T07:26:04.870Z,65.39
2017-09-17T07:28:33.172Z,64.54
2017-09-17T07:31:02.244Z,64.97
2017-09-17T07:33:30.540Z,62.32
2017-09-17T07:35:59.653Z,63.05
2017-09-17T07:38:27.954Z,61.23
2017-09-17T07:43:53.381Z,61.33
2017-09-17T07:46:21.693Z,61.56
2017-09-17T07:48:50.009Z,60.81
2017-09-17T07:51:18.360Z,60.14
2017-09-17T07:53:46.697Z,59.98
2017-09-17T07:56:15.072Z,60.73
2017-09-17T07:58:43.404Z,61.01
2017-09-17T08:01:11.719Z,61.25
2017-09-17T08:03:40.049Z,60.56
2017-09-17T08:06:09.141Z,60.61
2017-09-17T08:08:37.465Z,59.48
2017-09-17T08:11:05.771Z,59.83
2017-09-17T08:13:34.076Z,60.08
2017-09-17T08:16:02.386Z,60.56
2017-09-17T08:18:30.708Z,59.14
2017-09-17T08:20:59.029Z,59.80
2017-09-17T08:23:28.138Z,58.74
2017-09-17T08:25:56.446Z,56.99
2017-09-17T08:28:24.815Z,55.87
2017-09-17T08:30:53.123Z,55.86
2017-09-17T08:33:21.417Z,57.54
2017-09-17T08:35:49.720Z,56.19
2017-09-17T08:38:18.032Z,56.28
2017-09-17T08:40:46.333Z,55.92
2017-09-17T08:43:14.630Z,55.02
2017-09-17T08:45:42.959Z,54.06
2017-09-17T08:48:11.277Z,54.77
2017-09-17T08:50:39.602Z,52.56
2017-09-17T08:53:07.908Z,52.54
2017-09-17T08:55:36.219Z,54.36
2017-09-17T08:58:04.535Z,54.32
2017-09-17T09:00:32.828Z,54.30
2017-09-17T09:03:01.129Z,56.07
2017-09-17T09:05:29.430Z,54.70
2017-09-17T09:07:58.512Z,54.20
2017-09-17T09:10:26.809Z,53.86
2017-09-17T09:12:55.885Z,52.50
2017-09-17T09:15:24.181Z,50.62
2017-09-17T09:17:52.492Z,49.14
2017-09-17T09:20:20.800Z,43.41
2017-09-17T09:22:49.920Z,33.91
2017-09-17T09:25:18.227Z,36.01
2017-09-17T09:27:46.556Z,42.89
2017-09-17T09:30:15.629Z,45.23
2017-09-17T09:32:43.925Z,45.88
2017-09-17T09:35:13.003Z,47.64
2017-09-17T09:37:41.308Z,48.77
2017-09-17T09:40:09.639Z,47.10
2017-09-17T09:42:37.956Z,45.31
2017-09-17T09:45:06.298Z,43.01
2017-09-17T09:47:34.617Z,39.09
2017-09-17T09:50:03.004Z,38.68
2017-09-17T09:52:31.310Z,39.92
2017-09-17T09:54:59.620Z,40.89
2017-09-17T09:57:28.701Z,39.02
2017-09-17T09:59:57.013Z,39.81
2017-09-17T10:02:25.324Z,39.09
2017-09-17T10:04:53.621Z,38.04
2017-09-17T10:07:21.926Z,36.10
2017-09-17T10:09:50.999Z,33.53
2017-09-17T10:12:19.359Z,32.58
2017-09-17T10:14:47.665Z,31.82
2017-09-17T10:17:15.970Z,31.62
2017-09-17T10:19:44.280Z,34.83
2017-09-17T10:22:12.604Z,33.94
2017-09-17T10:24:40.902Z,36.88
2017-09-17T10:27:09.994Z,38.56
2017-09-17T10:29:39.057Z,36.25
2017-09-17T10:32:07.394Z,35.21
2017-09-17T10:34:35.773Z,36.68
2017-09-17T10:37:04.069Z,39.03
2017-09-17T10:39:32.382Z,40.44
2017-09-17T10:42:00.678Z,43.44
2017-09-17T10:44:29.758Z,42.77
2017-09-17T10:46:59.100Z,43.48
2017-09-17T10:49:27.401Z,43.37
2017-09-17T10:51:55.697Z,42.07
2017-09-17T10:54:24.024Z,38.35
2017-09-17T10:56:52.329Z,34.48
2017-09-17T10:59:20.634Z,36.33
2017-09-17T11:01:48.945Z,36.51
2017-09-17T11:04:17.258Z,38.61
2017-09-17T11:06:45.569Z,38.60
2017-09-17T11:09:13.877Z,39.42
2017-09-17T11:11:42.208Z,39.97
2017-09-17T11:14:10.516Z,39.60
2017-09-17T11:16:39.595Z,41.36
2017-09-17T11:19:07.904Z,42.18
2017-09-17T11:21:36.233Z,42.23
2017-09-17T11:24:04.533Z,40.88
2017-09-17T11:26:32.830Z,41.21
2017-09-17T11:29:01.901Z,40.32
2017-09-17T11:31:30.202Z,41.39
2017-09-17T11:33:59.265Z,41.05
2017-09-17T11:36:27.560Z,41.29
2017-09-17T11:38:56.630Z,36.98
2017-09-17T11:41:24.925Z,37.34
2017-09-17T11:43:53.252Z,38.72
2017-09-17T11:46:21.561Z,39.74
2017-09-17T11:48:50.677Z,40.03
2017-09-17T11:51:19.736Z,40.32
2017-09-17T11:53:48.038Z,41.13
2017-09-17T11:56:16.346Z,43.03
2017-09-17T11:58:44.646Z,44.15
2017-09-17T12:01:12.965Z,44.07
2017-09-17T12:03:42.142Z,45.12
2017-09-17T12:06:10.445Z,43.17
2017-09-17T12:08:38.737Z,43.24
2017-09-17T12:11:07.832Z,44.40
2017-09-17T12:13:36.896Z,44.91
2017-09-17T12:16:05.193Z,44.28
2017-09-17T12:18:33.497Z,44.01
2017-09-17T12:21:01.810Z,43.30
2017-09-17T12:23:30.118Z,40.60
2017-09-17T12:25:58.416Z,40.63
2017-09-17T12:28:27.498Z,39.54
2017-09-17T12:30:55.798Z,38.42
2017-09-17T12:33:24.865Z,38.00
2017-09-17T12:35:53.168Z,37.76
2017-09-17T12:38:21.544Z,36.56
2017-09-17T12:40:49.849Z,36.30
2017-09-17T12:43:18.344Z,37.53
2017-09-17T12:45:46.655Z,37.45
2017-09-17T12:48:14.996Z,37.17
2017-09-17T12:50:43.300Z,35.49
2017-09-17T12:53:11.589Z,35.67
2017-09-17T12:55:39.891Z,36.14
2017-09-17T12:58:08.957Z,36.42
2017-09-17T13:00:37.273Z,36.39
2017-09-17T13:03:05.573Z,37.94
2017-09-17T13:05:33.899Z,37.93
2017-09-17T13:08:02.196Z,38.11
2017-09-17T13:10:30.488Z,38.63
2017-09-17T13:12:58.799Z,39.97
2017-09-17T13:15:27.105Z,39.47
2017-09-17T13:17:56.194Z,40.89
2017-09-17T13:20:24.494Z,40.76
2017-09-17T13:22:53.606Z,41.79
2017-09-17T13:25:21.909Z,42.25
2017-09-17T13:27:50.221Z,42.13
2017-09-17T13:30:18.516Z,42.63
2017-09-17T13:32:47.614Z,42.09
2017-09-17T13:35:16.679Z,43.47
2017-09-17T13:37:44.993Z,43.61
2017-09-17T13:40:14.526Z,45.25
2017-09-17T13:42:42.821Z,46.46
2017-09-17T13:45:11.130Z,46.17
2017-09-17T13:47:39.437Z,43.90
2017-09-17T13:50:07.749Z,43.09
2017-09-17T13:52:36.041Z,41.64
2017-09-17T13:55:04.360Z,40.29
2017-09-17T13:57:33.421Z,38.26
2017-09-17T14:00:02.530Z,37.24
2017-09-17T14:05:53.245Z,39.44
2017-09-17T14:11:25.425Z,42.24
2017-09-17T14:13:53.733Z,42.01
2017-09-17T14:16:22.801Z,42.02
2017-09-17T14:18:51.126Z,42.45
2017-09-17T14:21:19.441Z,42.71
2017-09-17T14:23:47.759Z,43.84
2017-09-17T14:26:16.829Z,44.31
2017-09-17T14:28:45.160Z,45.73
2017-09-17T14:31:13.557Z,46.20
2017-09-17T14:33:41.853Z,47.02
2017-09-17T14:36:10.183Z,45.85
2017-09-17T14:38:38.489Z,46.07
2017-09-17T14:41:06.825Z,46.22
2017-09-17T14:43:35.143Z,46.27
2017-09-17T14:46:04.230Z,46.45
2017-09-17T14:48:32.537Z,47.28
2017-09-17T14:51:00.842Z,48.67
2017-09-17T14:53:29.917Z,50.16
2017-09-17T14:55:58.220Z,50.40
2017-09-17T14:58:27.303Z,49.26
2017-09-17T15:00:55.615Z,48.22
2017-09-17T15:03:23.913Z,48.15
2017-09-17T15:05:52.245Z,46.14
2017-09-17T15:08:21.313Z,45.01
2017-09-17T15:10:49.626Z,44.78
2017-09-17T15:13:18.839Z,45.55
2017-09-17T15:15:47.141Z,45.74
2017-09-17T15:18:15.457Z,46.44
2017-09-17T15:20:43.763Z,46.22
2017-09-17T15:23:12.077Z,45.11
2017-09-17T15:25:41.155Z,43.74
2017-09-17T15:28:09.482Z,45.00
2017-09-17T15:30:38.561Z,45.30
2017-09-17T15:33:06.868Z,46.50
2017-09-17T15:35:35.933Z,46.54
2017-09-17T15:38:04.242Z,46.30
2017-09-17T15:40:33.319Z,47.54
2017-09-17T15:43:02.403Z,46.09
2017-09-17T15:45:30.722Z,46.03
2017-09-17T15:47:59.021Z,46.84
2017-09-17T15:50:27.322Z,46.65
2017-09-17T15:52:55.622Z,46.52
2017-09-17T15:55:23.947Z,47.16
2017-09-17T15:57:52.248Z,48.05
2017-09-17T16:00:20.595Z,47.88
2017-09-17T16:02:48.909Z,49.61
2017-09-17T16:05:17.208Z,49.39
2017-09-17T16:07:45.522Z,49.68
2017-09-17T16:10:13.817Z,50.28
2017-09-17T16:12:42.126Z,50.91
2017-09-17T16:15:10.435Z,50.65
2017-09-17T16:17:39.534Z,50.73
2017-09-17T16:20:08.625Z,52.30
2017-09-17T16:22:37.721Z,52.98
2017-09-17T16:25:06.920Z,53.71
2017-09-17T16:27:35.279Z,53.87
2017-09-17T16:30:04.389Z,53.37
2017-09-17T16:32:33.464Z,53.58
2017-09-17T16:35:01.793Z,53.49
2017-09-17T16:37:30.120Z,54.00
2017-09-17T16:39:58.431Z,53.74
2017-09-17T16:42:26.732Z,53.27
2017-09-17T16:44:55.069Z,53.87
2017-09-17T16:47:24.130Z,55.81
2017-09-17T16:49:52.433Z,67.04
2017-09-17T16:52:20.745Z,74.55
2017-09-17T16:54:49.035Z,76.68
2017-09-17T16:57:17.346Z,79.53
2017-09-17T16:59:45.641Z,78.99
2017-09-17T17:02:13.955Z,79.30
2017-09-17T17:04:42.273Z,79.68
2017-09-17T17:07:10.617Z,80.05
2017-09-17T17:09:38.925Z,79.28
2017-09-17T17:12:07.234Z,79.36
2017-09-17T17:14:36.300Z,79.51
2017-09-17T17:17:04.609Z,79.34
2017-09-17T17:19:34.410Z,78.71
2017-09-17T17:22:03.476Z,79.22
2017-09-17T17:24:31.785Z,78.11
2017-09-17T17:27:00.852Z,78.19
2017-09-17T17:29:29.198Z,79.58
2017-09-17T17:31:57.534Z,81.24
2017-09-17T17:34:25.842Z,80.17
2017-09-17T17:36:54.917Z,79.65
2017-09-17T17:39:23.730Z,80.12
2017-09-17T17:41:52.053Z,79.96
2017-09-17T17:44:20.582Z,80.31
2017-09-17T17:46:48.901Z,80.17
2017-09-17T17:49:17.221Z,81.69
2017-09-17T17:51:45.577Z,81.23
2017-09-17T17:54:13.893Z,81.23
2017-09-17T17:56:42.246Z,81.60
2017-09-17T17:59:11.317Z,82.95
2017-09-17T18:01:39.616Z,82.46
2017-09-17T18:04:07.919Z,81.84
2017-09-17T18:06:36.224Z,83.11
2017-09-17T18:09:04.545Z,84.98
2017-09-17T18:11:33.618Z,84.02
2017-09-17T18:14:01.933Z,85.13
2017-09-17T18:16:31.003Z,84.64
2017-09-17T18:18:59.317Z,85.32
2017-09-17T18:21:27.638Z,85.98
2017-09-17T18:23:55.987Z,86.21
2017-09-17T18:26:24.294Z,86.63
2017-09-17T18:28:52.597Z,87.28
2017-09-17T18:31:20.952Z,87.95
2017-09-17T18:33:49.259Z,87.86
2017-09-17T18:36:17.584Z,86.55
2017-09-17T18:38:45.900Z,86.73
2017-09-17T18:41:14.237Z,86.83
2017-09-17T18:43:42.533Z,85.64
2017-09-17T18:46:10.885Z,85.82
2017-09-17T18:48:39.186Z,85.61
2017-09-17T18:51:12.913Z,84.24
2017-09-17T18:53:41.215Z,85.98
2017-09-17T18:56:10.349Z,85.19
2017-09-17T18:58:38.657Z,86.29
2017-09-17T19:01:06.953Z,85.27
2017-09-17T19:03:36.051Z,86.07
2017-09-17T19:06:05.126Z,86.14
2017-09-17T19:08:33.430Z,84.70
2017-09-17T19:11:02.493Z,85.31
2017-09-17T19:13:30.801Z,85.68
2017-09-17T19:15:59.861Z,86.54
2017-09-17T19:18:28.227Z,87.69
2017-09-17T19:20:56.537Z,86.35
2017-09-17T19:23:24.837Z,85.42
2017-09-17T19:25:53.145Z,86.51
2017-09-17T19:28:21.481Z,86.58
2017-09-17T19:30:50.549Z,85.38
2017-09-17T19:33:18.862Z,86.13
2017-09-17T19:35:47.187Z,86.90
2017-09-17T19:38:15.498Z,85.77
2017-09-17T19:40:43.835Z,86.00
2017-09-17T19:43:12.166Z,86.34
2017-09-17T19:45:41.251Z,83.90
2017-09-17T19:48:09.557Z,83.95
2017-09-17T19:50:37.881Z,84.87
2017-09-17T19:53:06.217Z,85.50
2017-09-17T19:55:34.553Z,86.17
2017-09-17T19:58:03.644Z,85.92
2017-09-17T20:00:31.977Z,85.84
2017-09-17T20:03:00.296Z,86.09
2017-09-17T20:05:28.601Z,85.99
2017-09-17T20:07:57.681Z,85.40
2017-09-17T20:10:25.973Z,85.90
2017-09-17T20:12:55.066Z,85.60
2017-09-17T20:15:24.130Z,85.75
2017-09-17T20:17:52.442Z,86.39
2017-09-17T20:20:21.513Z,86.32
2017-09-17T20:22:49.850Z,86.76
2017-09-17T20:25:18.788Z,87.65
2017-09-17T20:27:47.990Z,87.73
2017-09-17T20:30:16.427Z,87.91
2017-09-17T20:32:44.876Z,87.79
2017-09-17T20:35:13.219Z,88.70
2017-09-17T20:37:41.592Z,87.07
2017-09-17T20:40:09.905Z,86.91
2017-09-17T20:42:38.975Z,86.81
2017-09-17T20:45:07.277Z,87.25
2017-09-17T20:47:36.342Z,87.63
2017-09-17T20:50:04.650Z,87.50
2017-09-17T20:52:32.956Z,87.33
2017-09-17T20:55:01.286Z,87.79
2017-09-17T20:57:30.361Z,87.83
2017-09-17T20:59:59.084Z,87.81
2017-09-17T21:02:28.189Z,87.86
2017-09-17T21:04:56.491Z,87.67
2017-09-17T21:07:24.849Z,88.03
2017-09-17T21:09:53.153Z,87.80
2017-09-17T21:12:21.477Z,87.91
2017-09-17T21:14:50.550Z,87.87
2017-09-17T21:17:18.867Z,87.98
2017-09-17T21:19:47.178Z,87.55
2017-09-17T21:22:15.506Z,87.80
2017-09-17T21:24:44.561Z,87.64
2017-09-17T21:27:12.849Z,87.51
2017-09-17T21:29:41.157Z,88.62
2017-09-17T21:32:10.226Z,88.62
2017-09-17T21:34:38.524Z,88.33
2017-09-17T21:37:07.587Z,87.83
2017-09-17T21:39:35.903Z,87.93
2017-09-17T21:42:04.960Z,88.17
2017-09-17T21:44:33.260Z,88.86
2017-09-17T21:47:02.326Z,88.47
2017-09-17T21:49:30.628Z,88.44
2017-09-17T21:51:58.917Z,89.04
2017-09-17T21:54:27.980Z,89.19
2017-09-17T21:56:56.282Z,89.58
2017-09-17T21:59:24.568Z,89.21
2017-09-17T22:01:53.634Z,89.21
2017-09-17T22:04:21.926Z,88.87
2017-09-17T22:06:50.238Z,89.08
2017-09-17T22:09:18.532Z,89.27
2017-09-17T22:11:46.845Z,89.79
2017-09-17T22:14:15.139Z,89.54
2017-09-17T22:16:44.229Z,90.00
2017-09-17T22:19:12.517Z,89.66
2017-09-17T22:21:41.574Z,90.16
2017-09-17T22:24:09.869Z,90.05
2017-09-17T22:26:38.162Z,89.85
2017-09-17T22:29:07.238Z,90.09
2017-09-17T22:31:35.540Z,90.00
2017-09-17T22:34:04.601Z,90.00
2017-09-17T22:36:32.892Z,89.90
2017-09-17T22:39:01.205Z,89.59
2017-09-17T22:41:29.496Z,89.61
2017-09-17T22:43:57.788Z,89.71
2017-09-17T22:46:26.088Z,89.37
2017-09-17T22:48:54.377Z,89.43
2017-09-17T22:51:22.691Z,90.08
2017-09-17T22:53:50.985Z,89.74
2017-09-17T22:56:19.281Z,90.29
2017-09-17T22:58:47.588Z,90.04
2017-09-17T23:01:15.923Z,89.52
2017-09-17T23:03:44.209Z,89.97
2017-09-17T23:06:12.549Z,90.05
2017-09-17T23:08:40.844Z,89.86
2017-09-17T23:11:09.139Z,90.04
2017-09-17T23:13:37.458Z,90.21
2017-09-17T23:16:06.516Z,90.36
2017-09-17T23:18:34.813Z,90.09
2017-09-17T23:21:03.109Z,90.50
2017-09-17T23:23:32.196Z,90.31
2017-09-17T23:26:00.493Z,90.31
2017-09-17T23:28:28.792Z,90.01
2017-09-17T23:30:57.087Z,90.17
2017-09-17T23:33:25.377Z,90.84
2017-09-17T23:35:53.689Z,91.06
2017-09-17T23:38:22.753Z,90.71
2017-09-17T23:40:51.072Z,90.20
2017-09-17T23:43:19.373Z,90.73
2017-09-17T23:45:47.697Z,90.89
2017-09-17T23:48:15.985Z,90.55
2017-09-17T23:50:45.064Z,91.40
2017-09-17T23:53:13.388Z,91.65
2017-09-17T23:55:41.689Z,91.69
2017-09-17T23:58:09.997Z,90.76
